Aviation Digital Data Service (ADDS)

Output produced by METARs form (2122 UTC 24 February 2018)
found at http://aviationweather.gov/adds/metars/
 
KAEX 242100Z 2421/2518 18015G25KT P6SM VCSH SCT030 BKN050 
     FM242200 18017G27KT P6SM VCTS SCT025CB BKN050 
     FM250100 19012G20KT P6SM VCSH OVC025 
     FM250500 19010KT 4SM -SHRA BR SCT007 OVC015 
     TEMPO 2506/2510 1SM TSRA BKN007CB 
     FM251200 36006KT P6SM -SHRA OVC035